• Join FlightAware (Why Join?)
  • Login
  • US Flag 
10:00PM EST


 

Airport Tracker/Info


-or-


 

Live Flight TrackerFlight Track Log ✈ GGN7283 ✈ 23-Aug-2013 ✈ KALB - CYYZ

Flight Track Log - Related Links

Times and Time Zones

All times are in EDT time to prevent confusion due to time zone crossing. See the GGN7283 flight status page for this flight to view local times or setup timezone preferences in your user account.

Time Position Orientation Groundspeed Altitude Reporting Facility
EDT Latitude Longitude Course Direction KTS MPH feet Rate Location/Type
04:49PM 42.7611 -73.8089 320° Northwest 145 167 900  Level Boston Center
04:50PM 42.8167 -73.8722 320° Northwest 198 228 3,800 1,620 Climbing Boston Center
04:51PM 42.8303 -73.9322 287° West 208 239 5,200 1,620 Climbing Boston Center
04:52PM 42.8378 -74.0003 279° West 202 232 7,000 1,740 Climbing Boston Center
04:53PM 42.8492 -74.0742 282° West 202 232 8,800 1,920 Climbing Boston Center
04:54PM 42.8628 -74.1481 284° West 197 227 10,900 1,740 Climbing Boston Center
04:55PM 42.8658 -74.2192 273° West 206 237 12,400 1,560 Climbing Boston Center
04:56PM 42.8686 -74.3014 273° West 206 237 14,000 1,260 Climbing Boston Center
04:57PM 42.8736 -74.3808 275° West 220 253 14,900 960 Climbing Boston Center
04:58PM 42.8742 -74.4744 270° West 230 265 16,000 540 Climbing Boston Center
04:59PM 42.8767 -74.5594 272° West 242 278 16,000  Level Boston Center
05:00PM 42.8789 -74.6642 272° West 252 290 16,000  Level Boston Center
05:01PM 42.8814 -74.7522 272° West 252 290 16,000  Level Boston Center
05:02PM 42.8853 -74.8572 273° West 252 290 16,000  Level Boston Center
05:03PM 42.8875 -74.9508 272° West 252 290 16,000  Level Boston Center
05:04PM 42.8917 -75.0475 273° West 252 290 16,000  Level Boston Center
05:05PM 42.8936 -75.1411 272° West 252 290 16,000  Level Boston Center
05:06PM 42.8953 -75.2403 271° West 252 290 16,000  Level Boston Center
05:07PM 42.8972 -75.3339 272° West 252 290 16,000  Level Boston Center
05:08PM 42.9011 -75.4278 273° West 252 290 16,000  Level Boston Center
05:09PM 42.9025 -75.5242 271° West 252 290 16,000  Level Boston Center
05:10PM 42.9042 -75.6206 271° West 252 290 16,000  Level Boston Center
05:11PM 42.9078 -75.7144 273° West 252 290 16,000  Level Boston Center
05:12PM 42.9092 -75.8081 271° West 252 290 16,000  Level Boston Center
05:13PM 42.9125 -75.9075 273° West 258 297 16,000  Level Boston Center
05:14PM 42.9136 -76.0011 271° West 252 290 16,000  Level Boston Center
05:16PM 42.9133 -76.1603 270° West 251 289 16,000  Level Cleveland Center
05:17PM 42.9169 -76.2564 273° West 251 289 16,000  Level Cleveland Center
05:18PM 42.9183 -76.3500 271° West 251 289 16,000  Level Cleveland Center
05:19PM 42.9178 -76.4464 270° West 251 289 16,000  Level Cleveland Center
05:20PM 42.9189 -76.5428 271° West 251 289 16,000  Level Cleveland Center
05:21PM 42.9222 -76.6392 273° West 251 289 16,000  Level Cleveland Center
05:22PM 42.9217 -76.7439 270° West 251 289 16,000 -540 Level Cleveland Center
05:23PM 42.9250 -76.8431 273° West 251 289 15,000 -1,020 Descending Cleveland Center
05:24PM 42.9242 -76.9508 269° West 271 312 14,000 -540 Descending Cleveland Center
05:25PM 42.9253 -77.0531 271° West 271 312 14,000  Level Cleveland Center
05:26PM 42.9261 -77.1522 271° West 271 312 14,000  Level Cleveland Center
05:27PM 42.9269 -77.2486 271° West 271 312 14,000  Level Cleveland Center
05:28PM 42.9275 -77.3450 270° West 271 312 14,000  Level Cleveland Center
05:29PM 42.9281 -77.4414 270° West 266 306 14,000  Level Cleveland Center
05:30PM 42.9286 -77.5406 270° West 266 306 14,000  Level Cleveland Center
05:31PM 42.9311 -77.6369 272° West 266 306 14,000  Level Cleveland Center
05:32PM 42.9292 -77.7219 268° West 261 300 14,000  Level Cleveland Center
05:33PM 42.9314 -77.8156 272° West 256 295 14,000  Level Cleveland Center
05:34PM 42.9294 -77.9092 268° West 251 289 14,000  Level Cleveland Center
05:35PM 42.9317 -78.0028 272° West 254 292 14,000  Level Cleveland Center
05:36PM 42.9317 -78.0964 270° West 249 287 14,000  Level Cleveland Center
05:37PM 42.9314 -78.1872 270° West 249 287 14,000  Level Cleveland Center
05:38PM 42.9311 -78.2806 270° West 249 287 14,000  Level Cleveland Center
05:39PM 42.9308 -78.3714 270° West 254 292 14,000  Level Cleveland Center
05:40PM 42.9306 -78.4650 270° West 254 292 14,000  Level Cleveland Center
05:41PM 42.9303 -78.5586 270° West 249 287 14,000  Level Cleveland Center
05:42PM 42.9317 -78.6522 271° West 249 287 14,000 -180 Level Cleveland Center
05:43PM 42.9683 -78.7247 305° West 235 270 13,700 -900 Descending Cleveland Center
05:44PM 43.0092 -78.7975 308° West 235 270 12,300 -1,140 Descending Cleveland Center
05:45PM 43.0667 -78.9000 308° West 260 299 11,000 -540 Descending Toronto Center
05:46PM 43.1167 -78.9667 316° Northwest 250 288 11,000  Level Toronto Center
05:47PM 43.1500 -79.0667 295° West 250 288 11,000 -240 Level Toronto Center
05:48PM 43.1833 -79.1333 304° West 250 288 10,600 -720 Descending Toronto Center
05:49PM 43.2333 -79.2167 309° West 260 299 9,600 -840 Descending Toronto Center
05:50PM 43.2667 -79.2833 304° West 270 311 9,000 -360 Descending Toronto Center
05:51PM 43.3333 -79.3500 324° Northwest 260 299 8,900 -480 Descending Toronto Center
05:52PM 43.4000 -79.3833 340° North 260 299 8,100 -480 Descending Toronto Center
05:53PM 43.4667 -79.4000 350° North 260 299 8,000 -360 Descending Toronto Center
05:54PM 43.5167 -79.4667 316° Northwest 240 276 7,400 -900 Descending Toronto Center
05:55PM 43.5333 -79.5333 289° West 240 276 6,200 -1,260 Descending Toronto Center
05:56PM 43.5333 -79.6333 270° West 240 276 4,900 -1,380 Descending Toronto Center
05:57PM 43.5333 -79.7167 270° West 220 253 3,500 -1,080 Descending Toronto Center
05:58PM 43.5667 -79.7000 20° North 180 207 2,800 -900 Descending Toronto Center
05:59PM 43.6000 -79.6500 47° Northeast 160 184 1,800 -900 Descending Toronto Center
06:00PM 43.6333 -79.6333 20° North 140 161 1,100 -660 Descending Toronto Center
06:01PM 43.6500 -79.5833 65° Northeast 130 150 500 3,360 Descending Toronto Center
06:11PM 47.7167 -87.5667 309° West 480 552 39,000 3,780 Climbing Toronto Center